createdAt,value
2023-02-19T00:02:21.667Z,35.55
2023-02-19T00:04:49.834Z,33.20
2023-02-19T00:07:17.702Z,36.20
2023-02-19T00:09:45.540Z,37.95
2023-02-19T00:12:13.453Z,37.67
2023-02-19T00:14:41.381Z,37.10
2023-02-19T00:17:09.387Z,31.20
2023-02-19T00:19:37.455Z,32.83
2023-02-19T00:22:05.373Z,36.03
2023-02-19T00:24:33.361Z,34.58
2023-02-19T00:27:01.193Z,34.10
2023-02-19T00:29:29.350Z,30.00
2023-02-19T00:31:57.319Z,33.00
2023-02-19T00:34:25.429Z,29.25
2023-02-19T00:36:53.451Z,29.13
2023-02-19T00:39:21.637Z,25.90
2023-02-19T00:41:49.807Z,25.25
2023-02-19T00:44:18.122Z,24.70
2023-02-19T00:46:49.253Z,18.48
2023-02-19T00:49:21.441Z,9.88
2023-02-19T00:51:51.662Z,10.55
2023-02-19T00:54:20.285Z,8.00
2023-02-19T00:56:48.883Z,9.75
2023-02-19T00:59:16.933Z,6.50
2023-02-19T01:01:45.597Z,6.63
2023-02-19T01:04:13.920Z,9.25
2023-02-19T01:06:42.358Z,9.43
2023-02-19T01:09:10.380Z,10.15
2023-02-19T01:11:38.286Z,6.47
2023-02-19T01:14:06.257Z,9.27
2023-02-19T01:16:34.046Z,10.48
2023-02-19T01:19:02.534Z,24.85
2023-02-19T01:21:31.769Z,13.88
2023-02-19T01:23:59.864Z,15.57
2023-02-19T01:26:31.154Z,12.35
2023-02-19T01:29:01.362Z,15.07
2023-02-19T01:31:31.070Z,10.43
2023-02-19T01:34:01.302Z,9.70
2023-02-19T01:36:32.440Z,8.50
2023-02-19T01:39:04.023Z,9.27
2023-02-19T01:41:40.546Z,6.80
2023-02-19T01:44:28.482Z,10.15
2023-02-19T01:46:57.837Z,8.13
2023-02-19T01:49:32.152Z,7.63
2023-02-19T01:52:11.510Z,9.60
2023-02-19T01:54:42.718Z,7.00
2023-02-19T01:57:22.276Z,11.02
2023-02-19T01:59:55.473Z,12.13
2023-02-19T02:02:25.308Z,12.50
2023-02-19T02:04:53.705Z,13.82
2023-02-19T02:07:41.680Z,16.10
2023-02-19T02:10:21.837Z,16.40
2023-02-19T02:12:53.324Z,15.90
2023-02-19T02:15:22.540Z,8.38
2023-02-19T02:18:36.103Z,14.27
2023-02-19T02:21:21.985Z,14.45
2023-02-19T02:24:08.491Z,8.68
2023-02-19T02:26:56.567Z,19.00
2023-02-19T02:30:02.173Z,13.85
2023-02-19T02:32:38.602Z,9.02
2023-02-19T02:35:11.590Z,11.27
2023-02-19T02:37:43.708Z,12.40
2023-02-19T02:40:12.779Z,10.93
2023-02-19T02:42:40.832Z,18.30
2023-02-19T02:45:37.416Z,14.20
2023-02-19T02:48:46.733Z,21.52
2023-02-19T02:51:38.933Z,25.33
2023-02-19T02:58:10.888Z,18.98
2023-02-19T03:01:02.371Z,17.30
2023-02-19T03:03:32.724Z,14.20
2023-02-19T03:06:04.957Z,20.27
2023-02-19T03:09:18.876Z,16.83
2023-02-19T03:12:09.096Z,13.30
2023-02-19T03:15:05.207Z,13.65
2023-02-19T03:18:02.202Z,31.88
2023-02-19T03:20:34.675Z,30.95
2023-02-19T03:23:03.199Z,33.80
2023-02-19T03:25:57.775Z,24.02
2023-02-19T03:31:30.180Z,25.98
2023-02-19T03:34:05.972Z,29.73
2023-02-19T03:36:46.089Z,24.58
2023-02-19T03:39:19.160Z,23.60
2023-02-19T03:42:06.221Z,17.75
2023-02-19T03:44:39.201Z,15.70
2023-02-19T03:47:28.140Z,16.38
2023-02-19T03:50:09.185Z,22.27
2023-02-19T03:52:52.356Z,22.58
2023-02-19T03:55:38.144Z,23.48
2023-02-19T03:58:14.935Z,20.60
2023-02-19T04:00:47.855Z,20.00
2023-02-19T04:03:24.805Z,25.90
2023-02-19T04:06:01.412Z,28.95
2023-02-19T04:08:31.429Z,28.88
2023-02-19T04:11:04.964Z,24.77
2023-02-19T04:13:45.932Z,17.90
2023-02-19T04:16:20.939Z,20.33
2023-02-19T04:18:54.701Z,18.08
2023-02-19T04:21:24.211Z,16.35
2023-02-19T04:23:52.438Z,15.00
2023-02-19T04:26:22.856Z,14.57
2023-02-19T04:28:53.066Z,13.15
2023-02-19T04:31:21.509Z,13.10
2023-02-19T04:33:49.510Z,10.90
2023-02-19T04:36:17.567Z,11.32
2023-02-19T04:38:45.599Z,9.88
2023-02-19T04:41:13.691Z,11.57
2023-02-19T04:43:41.595Z,12.43
2023-02-19T04:46:10.078Z,13.68
2023-02-19T04:48:38.222Z,22.42
2023-02-19T04:51:07.801Z,23.00
2023-02-19T04:53:36.853Z,23.10
2023-02-19T04:56:16.056Z,27.02
2023-02-19T04:58:44.908Z,20.73
2023-02-19T05:01:13.590Z,24.88
2023-02-19T05:03:41.788Z,26.17
2023-02-19T05:06:13.736Z,21.98
2023-02-19T05:08:42.005Z,21.98
2023-02-19T05:11:12.391Z,27.15
2023-02-19T05:13:40.924Z,30.27
2023-02-19T05:16:14.169Z,30.38
2023-02-19T05:18:43.961Z,43.38
2023-02-19T05:21:12.700Z,67.32
2023-02-19T05:23:41.653Z,58.22
2023-02-19T05:26:19.388Z,61.33
2023-02-19T05:28:49.619Z,130.43
2023-02-19T05:31:18.953Z,120.97
2023-02-19T05:36:21.740Z,80.78
2023-02-19T05:38:57.299Z,117.30
2023-02-19T05:41:28.012Z,98.50
2023-02-19T05:43:57.171Z,92.32
2023-02-19T05:46:27.821Z,100.53
2023-02-19T05:48:56.302Z,66.07
2023-02-19T05:51:26.390Z,62.47
2023-02-19T05:53:56.043Z,60.78
2023-02-19T05:56:26.516Z,89.82
2023-02-19T05:58:55.853Z,72.22
2023-02-19T06:03:55.456Z,52.20
2023-02-19T06:06:26.408Z,87.18
2023-02-19T06:08:54.721Z,113.20
2023-02-19T06:11:23.054Z,62.90
2023-02-19T06:13:51.238Z,67.53
2023-02-19T06:16:19.634Z,55.20
2023-02-19T06:18:48.462Z,41.72
2023-02-19T06:21:18.171Z,34.25
2023-02-19T06:23:46.678Z,44.15
2023-02-19T06:26:20.942Z,63.20
2023-02-19T06:28:51.266Z,63.22
2023-02-19T06:31:20.901Z,58.17
2023-02-19T06:33:50.986Z,58.75
2023-02-19T06:36:20.911Z,261.38
2023-02-19T06:38:49.222Z,118.40
2023-02-19T06:41:18.108Z,104.72
2023-02-19T06:43:46.922Z,98.07
2023-02-19T06:46:15.673Z,88.78
2023-02-19T06:48:45.487Z,78.47
2023-02-19T06:51:15.832Z,50.92
2023-02-19T06:53:43.804Z,64.65
2023-02-19T06:56:30.359Z,86.90
2023-02-19T06:59:01.622Z,88.60
2023-02-19T07:01:32.061Z,73.70
2023-02-19T07:04:00.157Z,83.63
2023-02-19T07:06:28.550Z,97.10
2023-02-19T07:08:58.512Z,91.45
2023-02-19T07:11:29.582Z,97.55
2023-02-19T07:14:02.770Z,98.82
2023-02-19T07:16:31.254Z,97.78
2023-02-19T07:19:00.954Z,96.78
2023-02-19T07:21:29.907Z,103.05
2023-02-19T07:23:58.158Z,117.72
2023-02-19T07:26:26.205Z,55.00
2023-02-19T07:28:54.280Z,39.60
2023-02-19T07:31:24.503Z,26.95
2023-02-19T07:33:53.162Z,18.95
2023-02-19T07:36:23.554Z,12.05
2023-02-19T07:38:59.577Z,23.02
2023-02-19T07:41:28.338Z,11.48
2023-02-19T07:43:59.056Z,15.88
2023-02-19T07:46:27.461Z,13.13
2023-02-19T07:48:55.389Z,11.05
2023-02-19T07:51:23.788Z,13.77
2023-02-19T07:53:52.243Z,13.20
2023-02-19T07:56:21.201Z,12.95
2023-02-19T07:58:49.581Z,8.38
2023-02-19T08:01:40.264Z,8.95
2023-02-19T08:04:08.972Z,13.65
2023-02-19T08:06:36.921Z,12.32
2023-02-19T08:09:06.235Z,9.95
2023-02-19T08:11:53.241Z,9.88
2023-02-19T08:16:53.572Z,8.65
2023-02-19T08:21:51.109Z,10.95
2023-02-19T08:24:19.129Z,12.18
2023-02-19T08:26:47.506Z,24.63
2023-02-19T08:29:15.884Z,13.60
2023-02-19T08:31:44.534Z,13.95
2023-02-19T08:34:12.983Z,16.30
2023-02-19T08:36:41.078Z,27.77
2023-02-19T08:39:09.567Z,12.85
2023-02-19T08:44:06.361Z,16.92
2023-02-19T08:49:02.945Z,11.10
2023-02-19T08:51:31.341Z,20.20
2023-02-19T08:53:59.407Z,17.10
2023-02-19T08:56:27.711Z,15.98
2023-02-19T08:58:56.137Z,9.45
2023-02-19T09:01:24.668Z,19.20
2023-02-19T09:03:54.336Z,9.73
2023-02-19T09:06:22.930Z,14.90
2023-02-19T09:08:51.335Z,17.98
2023-02-19T09:11:19.643Z,10.27
2023-02-19T09:16:16.513Z,14.55
2023-02-19T09:18:46.160Z,8.75
2023-02-19T09:21:14.399Z,8.85
2023-02-19T09:23:45.691Z,11.98
2023-02-19T09:26:14.399Z,14.13
2023-02-19T09:28:42.515Z,12.05
2023-02-19T09:31:14.589Z,11.82
2023-02-19T09:33:47.897Z,10.77
2023-02-19T09:36:18.965Z,12.57
2023-02-19T09:38:47.343Z,21.25
2023-02-19T09:41:32.917Z,19.23
2023-02-19T09:44:04.832Z,18.48
2023-02-19T09:46:54.549Z,14.07
2023-02-19T09:49:50.298Z,14.98
2023-02-19T09:52:37.358Z,19.85
2023-02-19T09:55:19.470Z,18.67
2023-02-19T09:57:51.294Z,21.55
2023-02-19T10:00:29.498Z,11.10
2023-02-19T10:03:10.418Z,20.63
2023-02-19T10:05:41.517Z,15.05
2023-02-19T10:08:18.890Z,11.55
2023-02-19T10:10:47.834Z,12.85
2023-02-19T10:13:23.601Z,10.02
2023-02-19T10:15:57.627Z,9.88
2023-02-19T10:18:31.610Z,17.65
2023-02-19T10:21:01.146Z,14.65
2023-02-19T10:23:29.832Z,11.73
2023-02-19T10:26:01.521Z,8.27
2023-02-19T10:28:34.192Z,14.20
2023-02-19T10:31:05.677Z,8.77
2023-02-19T10:33:34.104Z,9.07
2023-02-19T10:36:24.038Z,13.85
2023-02-19T10:38:53.289Z,7.63
2023-02-19T10:41:24.735Z,8.43
2023-02-19T10:44:00.378Z,13.07
2023-02-19T10:46:33.515Z,9.70
2023-02-19T10:49:05.361Z,9.90
2023-02-19T10:51:39.417Z,9.75
2023-02-19T10:54:25.955Z,7.90
2023-02-19T10:56:54.973Z,9.10
2023-02-19T10:59:28.804Z,11.70
2023-02-19T11:02:17.351Z,9.88
2023-02-19T11:05:03.885Z,19.23
2023-02-19T11:10:04.917Z,6.65
2023-02-19T11:12:35.201Z,10.15
2023-02-19T11:15:29.986Z,8.60
2023-02-19T11:18:20.962Z,9.32
2023-02-19T11:20:50.174Z,11.13
2023-02-19T11:23:22.706Z,12.70
2023-02-19T11:25:54.482Z,10.88
2023-02-19T11:28:31.887Z,9.13
2023-02-19T11:31:32.016Z,10.98
2023-02-19T11:34:29.416Z,8.85
2023-02-19T11:37:14.017Z,8.65
2023-02-19T11:39:47.823Z,7.78
2023-02-19T11:42:35.548Z,12.63
2023-02-19T11:45:49.167Z,13.45
2023-02-19T11:48:30.261Z,26.63
2023-02-19T11:51:16.590Z,12.82
2023-02-19T11:53:53.894Z,8.82
2023-02-19T11:56:34.317Z,10.55
2023-02-19T11:59:05.752Z,8.65
2023-02-19T12:01:52.393Z,10.30
2023-02-19T12:04:31.956Z,7.85
2023-02-19T12:07:19.149Z,10.70
2023-02-19T12:09:50.486Z,8.25
2023-02-19T12:12:32.435Z,9.27
2023-02-19T12:15:33.200Z,9.45
2023-02-19T12:18:07.196Z,10.43
2023-02-19T12:20:52.049Z,7.85
2023-02-19T12:23:44.902Z,10.50
2023-02-19T12:26:59.861Z,8.05
2023-02-19T12:29:49.927Z,9.07
2023-02-19T12:32:45.378Z,9.32
2023-02-19T12:35:47.953Z,8.90
2023-02-19T12:38:58.735Z,9.02
2023-02-19T12:41:35.901Z,8.75
2023-02-19T12:44:55.661Z,10.48
2023-02-19T12:47:32.549Z,10.45
2023-02-19T12:50:12.994Z,10.50
2023-02-19T12:52:46.799Z,11.55
2023-02-19T12:55:38.632Z,9.02
2023-02-19T12:58:14.400Z,9.50
2023-02-19T13:00:51.039Z,9.90
2023-02-19T13:03:29.188Z,8.32
2023-02-19T13:06:21.621Z,9.75
2023-02-19T13:09:07.213Z,8.43
2023-02-19T13:11:42.284Z,7.78
2023-02-19T13:14:13.764Z,10.90
2023-02-19T13:16:48.876Z,16.45
2023-02-19T13:19:17.505Z,10.93
2023-02-19T13:22:17.998Z,7.97
2023-02-19T13:24:47.521Z,9.65
2023-02-19T13:27:43.119Z,15.32
2023-02-19T13:30:50.053Z,18.63
2023-02-19T13:33:33.696Z,13.35
2023-02-19T13:36:43.233Z,19.05
2023-02-19T13:41:55.587Z,15.13
2023-02-19T13:44:28.233Z,14.95
2023-02-19T13:47:00.118Z,20.58
2023-02-19T13:49:28.610Z,13.27
2023-02-19T13:51:58.130Z,9.80
2023-02-19T13:54:36.371Z,10.77
2023-02-19T13:57:28.957Z,17.75
2023-02-19T13:59:58.813Z,22.65
2023-02-19T14:02:33.995Z,14.38
2023-02-19T14:05:09.706Z,19.60
2023-02-19T14:07:53.980Z,40.88
2023-02-19T14:10:53.481Z,18.55
2023-02-19T14:13:52.886Z,8.10
2023-02-19T14:16:55.226Z,16.00
2023-02-19T14:19:42.160Z,20.08
2023-02-19T14:22:58.416Z,16.23
2023-02-19T14:25:44.159Z,25.13
2023-02-19T14:28:33.967Z,123.35
2023-02-19T14:31:17.815Z,30.15
2023-02-19T14:34:15.411Z,61.50
2023-02-19T14:36:54.570Z,207.98
2023-02-19T14:39:36.716Z,155.05
2023-02-19T14:42:22.291Z,63.92
2023-02-19T14:44:57.737Z,18.55
2023-02-19T14:47:31.274Z,37.28
2023-02-19T14:50:15.577Z,33.75
2023-02-19T14:52:52.067Z,33.22
2023-02-19T14:55:37.518Z,47.67
2023-02-19T14:58:12.731Z,17.92
2023-02-19T15:00:43.030Z,24.20
2023-02-19T15:03:38.154Z,16.30
2023-02-19T15:06:12.819Z,13.80
2023-02-19T15:08:47.095Z,15.13
2023-02-19T15:11:25.314Z,70.93
2023-02-19T15:13:59.224Z,98.05
2023-02-19T15:16:29.839Z,43.88
2023-02-19T15:19:00.272Z,37.58
2023-02-19T15:21:33.810Z,53.22
2023-02-19T15:24:05.603Z,44.10
2023-02-19T15:26:37.362Z,77.22
2023-02-19T15:29:14.412Z,40.33
2023-02-19T15:32:16.410Z,55.42
2023-02-19T15:34:55.330Z,126.13
2023-02-19T15:37:33.152Z,65.85
2023-02-19T15:40:08.036Z,129.90
2023-02-19T15:45:18.570Z,60.88
2023-02-19T15:48:09.626Z,74.43
2023-02-19T15:50:44.466Z,72.35
2023-02-19T15:53:24.311Z,71.30
2023-02-19T15:56:10.284Z,63.53
2023-02-19T15:59:13.875Z,59.75
2023-02-19T16:01:42.645Z,56.03
2023-02-19T16:04:16.611Z,60.05
2023-02-19T16:06:56.360Z,132.85
2023-02-19T16:09:31.478Z,55.72
2023-02-19T16:12:01.716Z,64.25
2023-02-19T16:14:32.275Z,63.90
2023-02-19T16:17:17.025Z,47.40
2023-02-19T16:20:02.826Z,17.60
2023-02-19T16:22:41.137Z,73.13
2023-02-19T16:25:28.848Z,29.48
2023-02-19T16:27:59.071Z,61.10
2023-02-19T16:30:31.588Z,66.97
2023-02-19T16:33:32.482Z,13.73
2023-02-19T16:36:21.373Z,38.03
2023-02-19T16:39:04.477Z,19.55
2023-02-19T16:41:53.190Z,18.02
2023-02-19T16:44:21.690Z,12.35
2023-02-19T16:47:03.577Z,21.35
2023-02-19T16:49:32.358Z,20.42
2023-02-19T16:52:04.250Z,20.02
2023-02-19T16:54:32.909Z,39.78
2023-02-19T16:57:01.147Z,22.63
2023-02-19T16:59:29.435Z,19.70
2023-02-19T17:01:57.966Z,30.70
2023-02-19T17:04:26.380Z,32.92
2023-02-19T17:06:54.952Z,77.93
2023-02-19T17:09:23.245Z,69.53
2023-02-19T17:11:51.469Z,43.60
2023-02-19T17:14:20.007Z,57.15
2023-02-19T17:16:48.677Z,38.10
2023-02-19T17:19:19.600Z,43.22
2023-02-19T17:21:48.218Z,42.80
2023-02-19T17:24:16.750Z,45.80
2023-02-19T17:26:45.242Z,48.20
2023-02-19T17:29:15.946Z,49.58
2023-02-19T17:31:45.226Z,46.70
2023-02-19T17:34:13.687Z,43.40
2023-02-19T17:36:43.671Z,44.30
2023-02-19T17:39:18.044Z,37.25
2023-02-19T17:41:46.487Z,54.65
2023-02-19T17:44:14.809Z,56.05
2023-02-19T17:46:43.840Z,59.00
2023-02-19T17:49:13.700Z,82.30
2023-02-19T17:51:42.397Z,82.15
2023-02-19T17:54:11.001Z,70.80
2023-02-19T17:56:43.624Z,72.43
2023-02-19T17:59:13.069Z,46.65
2023-02-19T18:01:41.751Z,66.88
2023-02-19T18:04:10.223Z,47.35
2023-02-19T18:06:38.822Z,52.53
2023-02-19T18:09:07.074Z,48.33
2023-02-19T18:11:37.350Z,60.40
2023-02-19T18:14:05.821Z,41.63
2023-02-19T18:16:34.236Z,48.65
2023-02-19T18:19:03.152Z,34.30
2023-02-19T18:23:59.644Z,50.33
2023-02-19T18:26:28.272Z,42.47
2023-02-19T18:28:57.091Z,58.08
2023-02-19T18:33:54.096Z,48.72
2023-02-19T18:36:23.204Z,63.85
2023-02-19T18:38:51.653Z,44.67
2023-02-19T18:41:21.397Z,46.60
2023-02-19T18:43:49.892Z,48.92
2023-02-19T18:46:21.664Z,41.67
2023-02-19T18:48:50.166Z,51.65
2023-02-19T18:51:18.748Z,41.78
2023-02-19T18:53:47.196Z,72.60
2023-02-19T18:56:16.161Z,84.13
2023-02-19T18:58:44.942Z,122.20
2023-02-19T19:01:14.457Z,125.80
2023-02-19T19:03:43.424Z,115.10
2023-02-19T19:06:11.797Z,137.77
2023-02-19T19:08:40.254Z,151.77
2023-02-19T19:11:09.486Z,130.38
2023-02-19T19:13:37.898Z,131.02
2023-02-19T19:16:07.031Z,148.40
2023-02-19T19:18:38.438Z,136.68
2023-02-19T19:21:07.458Z,141.48
2023-02-19T19:26:08.170Z,142.18
2023-02-19T19:28:39.739Z,131.02
2023-02-19T19:31:08.776Z,141.82
2023-02-19T19:33:37.366Z,142.65
2023-02-19T19:36:06.725Z,120.85
2023-02-19T19:38:35.562Z,146.65
2023-02-19T19:41:04.338Z,253.73
2023-02-19T19:43:34.189Z,343.00
2023-02-19T19:46:04.483Z,357.38
2023-02-19T19:48:33.588Z,309.38
2023-02-19T19:51:02.070Z,244.13
2023-02-19T19:53:30.736Z,197.50
2023-02-19T19:56:00.996Z,210.68
2023-02-19T19:58:29.795Z,182.18
2023-02-19T20:01:02.076Z,205.23
2023-02-19T20:03:32.786Z,199.30
2023-02-19T20:06:02.398Z,152.35
2023-02-19T20:08:30.691Z,154.13
2023-02-19T20:10:59.099Z,194.35
2023-02-19T20:13:31.005Z,170.10
2023-02-19T20:15:59.670Z,155.18
2023-02-19T20:18:28.582Z,132.55
2023-02-19T20:20:57.250Z,107.35
2023-02-19T20:23:27.363Z,84.43
2023-02-19T20:25:58.620Z,27.92
2023-02-19T20:28:27.169Z,16.20
2023-02-19T20:30:55.591Z,25.05
2023-02-19T20:33:24.564Z,18.88
2023-02-19T20:38:21.149Z,13.73
2023-02-19T20:40:49.502Z,14.75
2023-02-19T20:43:17.561Z,14.18
2023-02-19T20:45:46.821Z,12.35
2023-02-19T20:48:16.967Z,21.23
2023-02-19T20:50:46.189Z,11.43
2023-02-19T20:53:14.559Z,19.95
2023-02-19T20:55:42.602Z,20.30
2023-02-19T20:58:10.566Z,22.60
2023-02-19T21:00:38.995Z,14.07
2023-02-19T21:03:09.454Z,11.25
2023-02-19T21:05:39.772Z,13.50
2023-02-19T21:08:07.960Z,11.90
2023-02-19T21:10:36.213Z,13.65
2023-02-19T21:13:04.237Z,15.82
2023-02-19T21:15:32.185Z,11.45
2023-02-19T21:18:00.399Z,10.57
2023-02-19T21:20:28.273Z,12.73
2023-02-19T21:22:56.352Z,11.45
2023-02-19T21:25:24.326Z,11.68
2023-02-19T21:27:52.203Z,12.60
2023-02-19T21:30:20.302Z,11.75
2023-02-19T21:32:48.196Z,11.32
2023-02-19T21:35:16.648Z,13.40
2023-02-19T21:37:44.625Z,12.77
2023-02-19T21:40:13.612Z,14.35
2023-02-19T21:45:09.445Z,12.88
2023-02-19T21:47:37.413Z,14.27
2023-02-19T21:50:06.701Z,13.57
2023-02-19T21:52:34.672Z,15.13
2023-02-19T21:55:02.752Z,19.08
2023-02-19T21:57:32.593Z,12.30
2023-02-19T22:00:00.595Z,14.55
2023-02-19T22:02:28.856Z,9.63
2023-02-19T22:04:57.942Z,11.25
2023-02-19T22:07:26.341Z,10.30
2023-02-19T22:09:54.676Z,10.07
2023-02-19T22:12:22.545Z,8.82
2023-02-19T22:14:50.635Z,11.10
2023-02-19T22:17:19.778Z,9.95
2023-02-19T22:19:47.694Z,9.18
2023-02-19T22:22:15.699Z,9.57
2023-02-19T22:24:43.594Z,13.13
2023-02-19T22:27:11.553Z,12.98
2023-02-19T22:29:39.524Z,10.13
2023-02-19T22:32:07.792Z,8.90
2023-02-19T22:34:42.018Z,11.07
2023-02-19T22:37:10.779Z,11.07
2023-02-19T22:42:06.580Z,10.90
2023-02-19T22:44:35.635Z,12.38
2023-02-19T22:49:31.374Z,9.15
2023-02-19T22:52:04.573Z,26.00
2023-02-19T22:54:32.653Z,12.30
2023-02-19T22:57:00.672Z,10.70
2023-02-19T22:59:28.914Z,11.27
2023-02-19T23:01:57.251Z,10.30
2023-02-19T23:04:26.118Z,11.82
2023-02-19T23:09:28.715Z,12.63
2023-02-19T23:12:08.760Z,11.23
2023-02-19T23:14:36.980Z,12.00
2023-02-19T23:17:05.350Z,11.40
2023-02-19T23:19:33.307Z,11.05
2023-02-19T23:22:04.100Z,8.90
2023-02-19T23:24:34.111Z,13.98
2023-02-19T23:27:02.572Z,10.57
2023-02-19T23:29:31.168Z,20.77
2023-02-19T23:32:00.509Z,10.75
2023-02-19T23:34:28.647Z,13.63
2023-02-19T23:36:59.651Z,12.23
2023-02-19T23:39:27.573Z,12.48
2023-02-19T23:41:57.156Z,12.15
2023-02-19T23:44:25.929Z,12.40
2023-02-19T23:51:49.471Z,11.68
2023-02-19T23:54:17.447Z,10.73
2023-02-19T23:56:45.457Z,12.35
2023-02-19T23:59:13.710Z,10.40
